Time;durP1;ratioP1;P1;durP2;ratioP2;P2;SDS_P1;SDS_P2;PMS_P1;PMS_P2;Temp;Humidity;BMP_temperature;BMP_pressure;BME280_temperature;BME280_humidity;BME280_pressure;Samples;Min_cycle;Max_cycle;Signal;HPM_P1;HPM_P2
2024/01/07 00:02:16;;;;;;;21.87;16.73;;;1.80;99.90;;;;;;4955575;28;20225;-63
2024/01/07 00:04:43;;;;;;;22.83;16.83;;;1.90;99.90;;;;;;4943819;28;20281;-62
2024/01/07 00:07:10;;;;;;;23.27;17.60;;;1.80;99.90;;;;;;4958460;28;20567;-62
2024/01/07 00:09:38;;;;;;;21.67;17.67;;;1.90;99.90;;;;;;4973165;28;20261;-62
2024/01/07 00:12:06;;;;;;;22.63;18.10;;;1.80;99.90;;;;;;4977852;28;20249;-65
2024/01/07 00:14:33;;;;;;;23.90;19.03;;;1.80;99.90;;;;;;4964624;28;20225;-62
2024/01/07 00:17:00;;;;;;;25.80;18.47;;;1.80;99.90;;;;;;4948877;28;20213;-62
2024/01/07 00:19:31;;;;;;;24.23;17.60;;;1.70;99.90;;;;;;4961312;28;20222;-64
2024/01/07 00:21:59;;;;;;;24.63;17.97;;;1.80;99.90;;;;;;4976991;28;20203;-63
2024/01/07 00:24:32;;;;;;;32.57;20.73;;;1.80;99.90;;;;;;4967310;28;20256;-64
2024/01/07 00:26:59;;;;;;;26.33;18.33;;;1.90;99.90;;;;;;4985569;28;20667;-64
2024/01/07 00:29:26;;;;;;;21.10;16.33;;;1.80;99.90;;;;;;4966750;28;20276;-62
2024/01/07 00:31:53;;;;;;;29.80;19.70;;;1.80;99.90;;;;;;4984084;28;20202;-62
2024/01/07 00:34:20;;;;;;;26.83;17.80;;;1.80;99.90;;;;;;4944813;28;20201;-62
2024/01/07 00:36:47;;;;;;;31.10;20.07;;;1.80;99.90;;;;;;4959725;28;20705;-62
2024/01/07 00:39:14;;;;;;;45.87;23.17;;;1.80;99.90;;;;;;4954618;28;20336;-62
2024/01/07 00:41:41;;;;;;;48.47;24.53;;;1.80;99.90;;;;;;4971293;28;20702;-64
2024/01/07 00:44:08;;;;;;;42.40;22.77;;;1.80;99.90;;;;;;4949587;28;20265;-62
2024/01/07 00:46:35;;;;;;;94.27;35.17;;;1.80;99.90;;;;;;4975066;28;20269;-62
2024/01/07 00:49:02;;;;;;;43.40;23.60;;;1.80;99.90;;;;;;4964502;28;20698;-64
2024/01/07 00:51:29;;;;;;;117.00;38.07;;;1.80;99.90;;;;;;4972467;28;20209;-64
2024/01/07 00:53:56;;;;;;;25.77;17.70;;;1.80;99.90;;;;;;4953914;28;20223;-64
2024/01/07 00:56:26;;;;;;;36.77;21.80;;;1.70;99.90;;;;;;4947030;28;20203;-61
2024/01/07 00:58:54;;;;;;;31.47;20.60;;;1.70;99.90;;;;;;4952651;28;20209;-62
2024/01/07 01:01:21;;;;;;;32.10;20.23;;;1.60;99.90;;;;;;4952673;28;20224;-63
2024/01/07 01:03:49;;;;;;;48.87;23.80;;;1.60;99.90;;;;;;4952076;28;20293;-62
2024/01/07 01:06:16;;;;;;;22.63;17.27;;;1.60;99.90;;;;;;4951005;28;20284;-61
2024/01/07 01:08:43;;;;;;;40.10;23.27;;;1.60;99.90;;;;;;4925990;28;20326;-61
2024/01/07 01:11:10;;;;;;;34.03;22.00;;;1.60;99.90;;;;;;4963366;28;20221;-62
2024/01/07 01:13:37;;;;;;;26.80;16.87;;;1.60;99.90;;;;;;4961995;28;20194;-61
2024/01/07 01:16:04;;;;;;;23.30;17.40;;;1.60;99.90;;;;;;4948300;28;20253;-61
2024/01/07 01:18:31;;;;;;;33.57;21.27;;;1.50;99.90;;;;;;4949017;28;20198;-61
2024/01/07 01:20:58;;;;;;;53.63;27.93;;;1.60;99.90;;;;;;4962504;28;20200;-61
2024/01/07 01:23:25;;;;;;;22.70;18.20;;;1.60;99.90;;;;;;4932127;28;20201;-61
2024/01/07 01:25:52;;;;;;;19.00;16.67;;;1.60;99.90;;;;;;4953258;28;20202;-61
2024/01/07 01:28:19;;;;;;;27.17;19.23;;;1.60;99.90;;;;;;4929477;28;20259;-62
2024/01/07 01:30:46;;;;;;;26.93;19.37;;;1.60;99.90;;;;;;4949554;28;20198;-62
2024/01/07 01:33:13;;;;;;;23.27;18.17;;;1.60;99.90;;;;;;4953514;28;20198;-62
2024/01/07 01:35:40;;;;;;;24.67;17.53;;;1.70;99.90;;;;;;4954517;28;20239;-62
2024/01/07 01:38:07;;;;;;;21.17;16.37;;;1.70;99.90;;;;;;4974639;28;20221;-62
2024/01/07 01:40:34;;;;;;;19.97;16.30;;;1.70;99.90;;;;;;4975569;28;20702;-62
2024/01/07 01:43:05;;;;;;;19.33;16.17;;;1.60;99.90;;;;;;4953303;28;20254;-62
2024/01/07 01:45:32;;;;;;;21.33;17.60;;;1.60;99.90;;;;;;4979211;28;20289;-64
2024/01/07 01:47:59;;;;;;;19.67;16.30;;;1.50;99.90;;;;;;4969635;28;20323;-63
2024/01/07 01:50:26;;;;;;;21.13;17.47;;;1.60;99.90;;;;;;4955864;28;20228;-62
2024/01/07 01:52:56;;;;;;;21.27;17.63;;;1.60;99.90;;;;;;4963392;28;20569;-62
2024/01/07 01:55:23;;;;;;;21.67;17.97;;;1.60;99.90;;;;;;4965994;28;20196;-62
2024/01/07 01:57:51;;;;;;;19.93;17.80;;;1.60;99.90;;;;;;4957146;28;20728;-62
2024/01/07 02:00:19;;;;;;;18.23;16.20;;;1.70;99.90;;;;;;4959275;28;20198;-62
2024/01/07 02:02:46;;;;;;;18.53;16.53;;;1.60;99.90;;;;;;4957527;28;20202;-62
2024/01/07 02:05:13;;;;;;;17.93;16.07;;;1.60;99.90;;;;;;4942158;28;20206;-62
2024/01/07 02:07:41;;;;;;;21.43;17.87;;;1.60;99.90;;;;;;4957629;28;20272;-61
2024/01/07 02:10:09;;;;;;;18.57;16.27;;;1.60;99.90;;;;;;4978377;28;20539;-62
2024/01/07 02:12:36;;;;;;;18.17;15.80;;;1.60;99.90;;;;;;4955075;28;20240;-62
2024/01/07 02:15:04;;;;;;;19.00;17.10;;;1.50;99.90;;;;;;4971839;28;20240;-62
2024/01/07 02:17:31;;;;;;;19.57;17.00;;;1.50;99.90;;;;;;4955093;28;20198;-62
2024/01/07 02:19:58;;;;;;;22.93;18.00;;;1.50;99.90;;;;;;4970932;28;20337;-62
2024/01/07 02:22:25;;;;;;;20.03;17.17;;;1.50;99.90;;;;;;4977324;28;20250;-60
2024/01/07 02:24:52;;;;;;;19.00;16.80;;;1.40;99.90;;;;;;4961325;28;20212;-60
2024/01/07 02:27:19;;;;;;;19.77;17.70;;;1.40;99.90;;;;;;4942017;28;20260;-60
2024/01/07 02:29:46;;;;;;;23.53;17.77;;;1.40;99.90;;;;;;4953442;28;20706;-60
2024/01/07 02:32:13;;;;;;;21.43;17.70;;;1.40;99.90;;;;;;4952979;28;20206;-60
2024/01/07 02:34:40;;;;;;;19.60;17.17;;;1.40;99.90;;;;;;4961882;28;20555;-60
2024/01/07 02:37:07;;;;;;;19.00;17.07;;;1.40;99.90;;;;;;4957359;28;20217;-60
2024/01/07 02:39:34;;;;;;;18.77;16.83;;;1.40;99.90;;;;;;4958314;28;20202;-60
2024/01/07 02:42:01;;;;;;;18.67;16.83;;;1.40;99.90;;;;;;4974715;28;20198;-60
2024/01/07 02:44:28;;;;;;;18.67;16.60;;;1.30;99.90;;;;;;4955506;28;20197;-60
2024/01/07 02:46:55;;;;;;;21.10;17.93;;;1.30;99.90;;;;;;4979019;28;20288;-62
2024/01/07 02:49:22;;;;;;;20.40;17.97;;;1.30;99.90;;;;;;4978729;28;20213;-60
2024/01/07 02:51:50;;;;;;;20.97;18.73;;;1.30;99.90;;;;;;4970128;28;20301;-62
2024/01/07 02:54:17;;;;;;;19.23;17.17;;;1.40;99.90;;;;;;4974290;28;20268;-60
2024/01/07 02:56:44;;;;;;;21.53;18.20;;;1.40;99.90;;;;;;4957373;28;20208;-61
2024/01/07 02:59:11;;;;;;;19.77;17.63;;;1.40;99.90;;;;;;4967631;28;20261;-60
2024/01/07 03:05:40;;;;;;;19.87;15.80;;;1.30;99.90;;;;;;4971212;28;20177;-64
2024/01/07 03:08:07;;;;;;;18.33;16.40;;;1.30;99.90;;;;;;4951551;28;20546;-62
2024/01/07 03:10:34;;;;;;;20.43;17.23;;;1.30;99.90;;;;;;4953028;28;20234;-60
2024/01/07 03:13:02;;;;;;;19.83;17.77;;;1.40;99.90;;;;;;4962835;28;20646;-63
2024/01/07 03:15:30;;;;;;;18.37;16.47;;;1.40;99.90;;;;;;4982907;28;20197;-63
2024/01/07 03:17:57;;;;;;;18.77;16.90;;;1.40;99.90;;;;;;4966891;28;20646;-62
2024/01/07 03:20:25;;;;;;;17.70;16.10;;;1.30;99.90;;;;;;4968908;28;20194;-62
2024/01/07 03:22:51;;;;;;;16.83;15.37;;;1.40;99.90;;;;;;4955333;28;20576;-62
2024/01/07 03:25:18;;;;;;;18.23;16.33;;;1.30;99.90;;;;;;4961930;28;20202;-61
2024/01/07 03:27:46;;;;;;;18.57;16.73;;;1.30;99.90;;;;;;4972342;28;20201;-63
2024/01/07 03:30:13;;;;;;;18.33;16.43;;;1.30;99.90;;;;;;4961371;28;20628;-61
2024/01/07 03:32:40;;;;;;;18.07;16.23;;;1.30;99.90;;;;;;4955323;28;20202;-62
2024/01/07 03:35:08;;;;;;;19.33;16.60;;;1.30;99.90;;;;;;4952756;28;20282;-62
2024/01/07 03:37:36;;;;;;;17.80;15.93;;;1.20;99.90;;;;;;4946914;28;20281;-63
2024/01/07 03:40:03;;;;;;;19.20;17.30;;;1.20;99.90;;;;;;4972648;28;20217;-60
2024/01/07 03:42:30;;;;;;;19.80;15.67;;;1.20;99.90;;;;;;4955013;28;20289;-62
2024/01/07 03:44:57;;;;;;;19.70;17.80;;;1.30;99.90;;;;;;4958980;28;20285;-61
2024/01/07 03:47:25;;;;;;;20.23;16.60;;;1.30;99.90;;;;;;4946616;28;22365;-61
2024/01/07 03:49:52;;;;;;;18.37;16.47;;;1.30;99.90;;;;;;4943763;28;20600;-61
2024/01/07 03:52:19;;;;;;;18.33;16.40;;;1.30;99.90;;;;;;4946407;28;20256;-61
2024/01/07 03:54:45;;;;;;;20.60;17.53;;;1.30;99.90;;;;;;4965556;28;20201;-60
2024/01/07 03:57:13;;;;;;;17.73;15.90;;;1.30;99.90;;;;;;4976423;28;20198;-61
2024/01/07 03:59:40;;;;;;;17.10;15.40;;;1.30;99.90;;;;;;4976195;28;20593;-61
2024/01/07 04:02:07;;;;;;;18.00;16.27;;;1.20;99.90;;;;;;4974581;28;20217;-60
2024/01/07 04:04:34;;;;;;;18.83;16.83;;;1.20;99.90;;;;;;4980143;28;20206;-60
2024/01/07 04:07:01;;;;;;;20.20;17.87;;;1.10;99.90;;;;;;4955923;28;20258;-61
2024/01/07 04:09:28;;;;;;;19.57;17.50;;;1.10;99.90;;;;;;4976364;28;20209;-61
2024/01/07 04:11:55;;;;;;;17.43;15.67;;;1.10;99.90;;;;;;4963249;28;20308;-61
2024/01/07 04:14:21;;;;;;;21.27;16.67;;;1.10;99.90;;;;;;4955173;28;20202;-60
2024/01/07 04:16:48;;;;;;;17.43;15.70;;;1.10;99.90;;;;;;4958404;28;20600;-61
2024/01/07 04:19:15;;;;;;;17.57;15.70;;;1.10;99.90;;;;;;4957900;28;20229;-61
2024/01/07 04:21:46;;;;;;;17.47;15.77;;;1.10;99.90;;;;;;4978215;28;20194;-61
2024/01/07 04:24:13;;;;;;;19.17;17.00;;;1.10;99.90;;;;;;4975615;28;20238;-61
2024/01/07 04:26:40;;;;;;;19.70;15.97;;;1.10;99.90;;;;;;4976957;28;20193;-60
2024/01/07 04:29:07;;;;;;;22.13;17.60;;;1.10;99.90;;;;;;4974216;28;20198;-60
2024/01/07 04:31:34;;;;;;;20.90;17.43;;;1.10;99.90;;;;;;4969476;28;20630;-60
2024/01/07 04:34:01;;;;;;;17.53;15.83;;;1.10;99.90;;;;;;4959296;28;20227;-60
2024/01/07 04:36:29;;;;;;;18.47;16.67;;;1.10;99.90;;;;;;4963126;28;20205;-61
2024/01/07 04:38:57;;;;;;;17.80;15.80;;;1.10;99.90;;;;;;4971437;28;20226;-61
2024/01/07 04:41:24;;;;;;;20.53;18.27;;;1.10;99.90;;;;;;4957123;28;20749;-60
2024/01/07 04:43:52;;;;;;;20.03;17.03;;;1.10;99.90;;;;;;4981960;28;20208;-60
2024/01/07 04:46:19;;;;;;;18.30;16.50;;;1.10;99.90;;;;;;4934848;28;20198;-60
2024/01/07 04:48:46;;;;;;;18.33;16.53;;;1.10;99.90;;;;;;4967589;28;20233;-61
2024/01/07 04:51:13;;;;;;;18.80;16.60;;;1.10;99.90;;;;;;4982894;28;20210;-60
2024/01/07 04:53:40;;;;;;;18.37;16.40;;;1.10;99.90;;;;;;4956931;28;20296;-60
2024/01/07 04:56:07;;;;;;;18.87;16.93;;;1.00;99.90;;;;;;4974146;28;20604;-61
2024/01/07 04:58:34;;;;;;;19.07;17.00;;;1.00;99.90;;;;;;4949056;28;20717;-60
2024/01/07 05:01:01;;;;;;;18.23;16.40;;;1.00;99.90;;;;;;4952795;28;20198;-61
2024/01/07 05:03:28;;;;;;;19.47;17.50;;;1.00;99.90;;;;;;4974707;28;20204;-60
2024/01/07 05:05:55;;;;;;;20.10;17.90;;;1.00;99.90;;;;;;4971478;28;20202;-61
2024/01/07 05:08:22;;;;;;;17.40;15.70;;;1.00;99.90;;;;;;4981681;28;20261;-60
2024/01/07 05:10:52;;;;;;;20.53;15.67;;;1.00;99.90;;;;;;4985308;28;20221;-60
2024/01/07 05:13:19;;;;;;;18.23;16.33;;;1.00;99.90;;;;;;4962023;28;20666;-60
2024/01/07 05:15:53;;;;;;;18.83;16.83;;;1.00;99.90;;;;;;4971339;28;20265;-61
2024/01/07 05:18:24;;;;;;;21.83;17.07;;;1.00;99.90;;;;;;4975706;28;20266;-60
2024/01/07 05:20:52;;;;;;;18.30;16.53;;;1.00;99.90;;;;;;4971533;28;20209;-61
2024/01/07 05:23:19;;;;;;;17.47;15.70;;;0.90;99.90;;;;;;4958844;28;20194;-61
2024/01/07 05:25:46;;;;;;;22.73;16.33;;;0.90;99.90;;;;;;4976488;28;20217;-61
2024/01/07 05:28:14;;;;;;;16.90;15.20;;;0.90;99.90;;;;;;4975662;28;20194;-61
2024/01/07 05:30:43;;;;;;;17.47;15.67;;;1.00;99.90;;;;;;4964552;28;20217;-61
2024/01/07 05:33:10;;;;;;;16.90;15.40;;;0.90;99.90;;;;;;4975714;28;20249;-60
2024/01/07 05:35:38;;;;;;;18.60;16.27;;;0.90;99.90;;;;;;4955719;28;20266;-61
2024/01/07 05:38:05;;;;;;;19.87;17.97;;;0.90;99.90;;;;;;4975376;28;20241;-61
2024/01/07 05:40:32;;;;;;;18.53;16.73;;;0.90;99.90;;;;;;4965416;28;20206;-62
2024/01/07 05:42:59;;;;;;;18.03;16.20;;;1.00;99.90;;;;;;4971831;28;20686;-61
2024/01/07 05:45:26;;;;;;;19.40;17.57;;;1.00;99.90;;;;;;4983638;28;20540;-61
2024/01/07 05:47:53;;;;;;;21.57;17.63;;;0.90;99.90;;;;;;4955542;28;20219;-62
2024/01/07 05:50:20;;;;;;;18.20;16.50;;;0.90;99.90;;;;;;4959416;28;20218;-62
2024/01/07 05:52:47;;;;;;;20.43;17.77;;;0.90;99.90;;;;;;4960933;28;20240;-62
2024/01/07 05:55:14;;;;;;;18.30;16.53;;;0.90;99.90;;;;;;4960321;28;20527;-62
2024/01/07 05:57:43;;;;;;;18.13;16.37;;;0.90;99.90;;;;;;4952303;28;20206;-62
2024/01/07 06:00:10;;;;;;;16.93;15.23;;;0.90;99.90;;;;;;4979558;28;20301;-62
2024/01/07 06:02:40;;;;;;;18.00;16.30;;;1.00;99.90;;;;;;4957551;28;20194;-61
2024/01/07 06:05:08;;;;;;;16.07;14.70;;;0.90;99.90;;;;;;4960945;28;20266;-61
2024/01/07 06:07:35;;;;;;;17.77;15.77;;;0.90;99.90;;;;;;4956910;28;20219;-62
2024/01/07 06:10:03;;;;;;;18.87;15.83;;;0.90;99.90;;;;;;4959579;28;20272;-62
2024/01/07 06:12:30;;;;;;;17.50;15.80;;;0.90;99.90;;;;;;4959013;28;20300;-62
2024/01/07 06:14:57;;;;;;;14.47;13.33;;;0.90;99.90;;;;;;4963385;28;20273;-61
2024/01/07 06:17:24;;;;;;;15.77;14.17;;;0.90;99.90;;;;;;4977661;28;20199;-61
2024/01/07 06:19:51;;;;;;;16.20;14.70;;;0.90;99.90;;;;;;4960931;28;20202;-63
2024/01/07 06:22:18;;;;;;;16.17;14.57;;;0.80;99.90;;;;;;4972904;28;20214;-62
2024/01/07 06:24:45;;;;;;;14.20;13.23;;;0.80;99.90;;;;;;4964385;28;20277;-61
2024/01/07 06:27:13;;;;;;;16.47;14.83;;;0.80;99.90;;;;;;4955800;28;20538;-63
2024/01/07 06:29:40;;;;;;;15.30;14.07;;;0.80;99.90;;;;;;4955047;28;20205;-63
2024/01/07 06:32:07;;;;;;;15.30;13.90;;;0.80;99.90;;;;;;4971754;28;20198;-63
2024/01/07 06:34:34;;;;;;;17.57;15.90;;;0.80;99.90;;;;;;4958991;28;20203;-62
2024/01/07 06:37:01;;;;;;;15.60;14.20;;;0.80;99.90;;;;;;4963646;28;20532;-62
2024/01/07 06:39:28;;;;;;;15.80;14.53;;;0.70;99.90;;;;;;4951401;28;20656;-61
2024/01/07 06:41:55;;;;;;;17.10;15.50;;;0.60;99.90;;;;;;4958497;28;20662;-63
2024/01/07 06:44:22;;;;;;;15.73;14.33;;;0.60;99.90;;;;;;4981169;28;20234;-63
2024/01/07 06:46:49;;;;;;;14.70;13.43;;;0.50;99.90;;;;;;4961025;28;20205;-61
2024/01/07 06:49:16;;;;;;;14.03;13.03;;;0.40;99.90;;;;;;4969486;28;20261;-61
2024/01/07 06:51:43;;;;;;;13.00;12.00;;;0.30;99.90;;;;;;4963127;28;20221;-61
2024/01/07 06:54:11;;;;;;;12.47;11.37;;;0.20;99.90;;;;;;4966405;28;20758;-60
2024/01/07 06:56:41;;;;;;;13.77;12.60;;;0.10;99.90;;;;;;4974755;28;20197;-61
2024/01/07 06:59:08;;;;;;;12.83;11.80;;;0.10;99.90;;;;;;4947771;28;20634;-61
2024/01/07 07:01:35;;;;;;;13.90;12.50;;;0.20;99.90;;;;;;4969834;28;20826;-62
2024/01/07 07:04:02;;;;;;;13.57;12.37;;;0.20;99.90;;;;;;4956745;28;20206;-63
2024/01/07 07:06:29;;;;;;;13.10;12.00;;;0.20;99.90;;;;;;4948062;28;20208;-60
2024/01/07 07:08:56;;;;;;;15.80;13.27;;;0.00;99.90;;;;;;4953103;28;20202;-61
2024/01/07 07:11:23;;;;;;;13.53;12.13;;;-0.10;99.90;;;;;;4944556;28;20693;-61
2024/01/07 07:13:50;;;;;;;14.10;12.90;;;-0.10;99.90;;;;;;4956000;28;20651;-61
2024/01/07 07:16:17;;;;;;;14.03;12.57;;;0.00;99.90;;;;;;4973803;28;20708;-62
2024/01/07 07:18:44;;;;;;;16.47;14.13;;;0.00;99.90;;;;;;4955223;28;20268;-62
2024/01/07 07:21:11;;;;;;;14.87;13.37;;;0.00;99.90;;;;;;4961276;28;20825;-60
2024/01/07 07:23:38;;;;;;;15.03;13.60;;;0.00;99.90;;;;;;4952813;28;20330;-62
2024/01/07 07:26:06;;;;;;;16.63;15.00;;;0.00;99.90;;;;;;4975599;28;20198;-61
2024/01/07 07:28:34;;;;;;;17.33;14.90;;;0.00;99.90;;;;;;4938486;28;20285;-61
2024/01/07 07:31:00;;;;;;;16.53;14.83;;;0.10;99.90;;;;;;4970374;28;20210;-61
2024/01/07 07:33:28;;;;;;;15.17;13.80;;;0.10;99.90;;;;;;4968912;28;20288;-63
2024/01/07 07:35:55;;;;;;;16.10;13.90;;;0.10;99.90;;;;;;4951424;28;20194;-63
2024/01/07 07:38:22;;;;;;;15.47;14.17;;;0.10;99.90;;;;;;4971972;28;20353;-63
2024/01/07 07:40:52;;;;;;;16.77;15.23;;;0.10;99.90;;;;;;4975519;28;20325;-60
2024/01/07 07:43:23;;;;;;;17.03;15.43;;;0.10;99.90;;;;;;4947270;28;20294;-63
2024/01/07 07:45:50;;;;;;;17.80;15.60;;;0.10;99.90;;;;;;4981756;28;20879;-62
2024/01/07 07:48:19;;;;;;;17.27;15.77;;;0.10;99.90;;;;;;4972788;28;20646;-63
2024/01/07 07:50:46;;;;;;;21.63;16.63;;;0.10;99.90;;;;;;4976068;28;20602;-61
2024/01/07 07:53:13;;;;;;;20.90;15.73;;;0.20;99.90;;;;;;4973493;28;20361;-61
2024/01/07 07:55:40;;;;;;;17.90;16.20;;;0.20;99.90;;;;;;4948864;28;20944;-61
2024/01/07 07:58:08;;;;;;;18.40;14.77;;;0.20;99.90;;;;;;4970573;28;20296;-62
2024/01/07 08:00:35;;;;;;;15.57;14.17;;;0.10;99.90;;;;;;4969740;28;20666;-63
2024/01/07 08:03:02;;;;;;;17.50;15.77;;;0.10;99.90;;;;;;4950734;28;20193;-60
2024/01/07 08:05:30;;;;;;;17.33;15.57;;;0.10;99.90;;;;;;4932860;28;20202;-63
2024/01/07 08:07:57;;;;;;;17.27;15.20;;;0.10;99.90;;;;;;4972305;28;20206;-61
2024/01/07 08:10:24;;;;;;;17.30;15.70;;;0.10;99.90;;;;;;4939872;28;20266;-61
2024/01/07 08:12:50;;;;;;;18.03;14.37;;;0.20;99.90;;;;;;4943530;28;20706;-61
2024/01/07 08:15:17;;;;;;;17.07;14.97;;;0.20;99.90;;;;;;4966584;28;20293;-61
2024/01/07 08:17:44;;;;;;;17.23;15.47;;;0.10;99.90;;;;;;4957314;28;20575;-62
2024/01/07 08:20:12;;;;;;;26.50;16.63;;;0.10;99.90;;;;;;4974749;28;20194;-61
2024/01/07 08:22:39;;;;;;;19.23;15.50;;;0.10;99.90;;;;;;4956386;28;20194;-64
2024/01/07 08:25:06;;;;;;;16.57;14.93;;;0.10;99.90;;;;;;4958810;28;20198;-64
2024/01/07 08:27:34;;;;;;;15.33;13.93;;;0.10;99.90;;;;;;4954683;28;20617;-63
2024/01/07 08:30:01;;;;;;;15.30;14.00;;;0.10;99.90;;;;;;4954267;28;20211;-64
2024/01/07 08:32:29;;;;;;;38.90;20.07;;;0.10;99.90;;;;;;4963854;28;20199;-60
2024/01/07 08:34:56;;;;;;;15.27;13.97;;;0.10;99.90;;;;;;4958727;28;20194;-64
2024/01/07 08:37:23;;;;;;;16.40;14.73;;;0.10;99.90;;;;;;4950929;28;20258;-63
2024/01/07 08:39:50;;;;;;;15.23;14.07;;;0.10;99.90;;;;;;4962218;28;20606;-63
2024/01/07 08:42:17;;;;;;;16.37;14.77;;;0.10;99.90;;;;;;4974092;28;20195;-62
2024/01/07 08:44:44;;;;;;;27.67;16.37;;;0.10;99.90;;;;;;4959536;28;20260;-63
2024/01/07 08:47:11;;;;;;;15.17;13.97;;;0.10;99.90;;;;;;4960651;28;20256;-63
2024/01/07 08:49:38;;;;;;;14.30;12.90;;;0.20;99.90;;;;;;4966346;28;20203;-62
2024/01/07 08:52:05;;;;;;;14.80;13.73;;;0.20;99.90;;;;;;4948340;28;20246;-63
2024/01/07 08:54:33;;;;;;;16.10;14.57;;;0.10;99.90;;;;;;4979114;28;20182;-63
2024/01/07 08:57:00;;;;;;;15.57;14.37;;;0.10;99.90;;;;;;4958398;28;20262;-62
2024/01/07 08:59:27;;;;;;;14.87;13.77;;;0.20;99.90;;;;;;4960296;28;20262;-61
2024/01/07 09:01:54;;;;;;;13.80;12.80;;;0.20;99.90;;;;;;4948967;28;20209;-63
2024/01/07 09:04:21;;;;;;;15.17;13.97;;;0.10;99.90;;;;;;4972644;28;20221;-64
2024/01/07 09:06:48;;;;;;;14.57;13.27;;;0.10;99.90;;;;;;4970690;28;20222;-62
2024/01/07 09:09:15;;;;;;;14.80;13.50;;;0.00;99.90;;;;;;4951328;28;20504;-61
2024/01/07 09:11:42;;;;;;;15.30;13.83;;;0.00;99.90;;;;;;4973370;28;20550;-61
2024/01/07 09:14:11;;;;;;;16.73;15.13;;;0.00;99.90;;;;;;4972334;28;20198;-63
2024/01/07 09:16:38;;;;;;;15.00;13.90;;;0.10;99.90;;;;;;4970136;28;20277;-61
2024/01/07 09:19:05;;;;;;;17.70;15.10;;;0.10;99.90;;;;;;4956201;28;20185;-63
2024/01/07 09:21:33;;;;;;;13.37;12.57;;;0.20;99.90;;;;;;4957264;28;20190;-63
2024/01/07 09:24:00;;;;;;;14.13;13.03;;;0.20;99.90;;;;;;4936660;28;20707;-62
2024/01/07 09:26:28;;;;;;;13.87;12.97;;;0.20;99.90;;;;;;4940568;28;20666;-62
2024/01/07 09:28:57;;;;;;;14.83;13.83;;;0.20;99.90;;;;;;4958061;28;20201;-62
2024/01/07 09:31:23;;;;;;;14.30;13.30;;;0.20;99.90;;;;;;4982708;28;20264;-63
2024/01/07 09:33:50;;;;;;;14.97;13.87;;;0.20;99.90;;;;;;4971207;28;20213;-62
2024/01/07 09:36:18;;;;;;;13.50;12.70;;;0.30;99.90;;;;;;4961478;28;20697;-64
2024/01/07 09:38:56;;;;;;;14.37;13.17;;;0.30;99.90;;;;;;4968718;28;20230;-64
2024/01/07 09:41:29;;;;;;;14.40;13.47;;;0.20;99.90;;;;;;4936280;28;20301;-61
2024/01/07 09:43:59;;;;;;;14.67;13.67;;;0.30;99.90;;;;;;4955799;28;20276;-63
2024/01/07 09:46:28;;;;;;;14.97;13.73;;;0.30;99.90;;;;;;4954801;28;20638;-62
2024/01/07 09:48:58;;;;;;;14.27;13.37;;;0.50;99.90;;;;;;4959032;28;20225;-62
2024/01/07 09:51:38;;;;;;;13.90;13.00;;;0.60;99.90;;;;;;4980484;28;20206;-64
2024/01/07 09:54:14;;;;;;;14.50;13.53;;;0.50;99.90;;;;;;4977526;28;20198;-62
2024/01/07 09:56:54;;;;;;;13.63;12.73;;;0.40;99.90;;;;;;4956473;28;20595;-63
2024/01/07 09:59:30;;;;;;;13.43;12.63;;;0.20;99.90;;;;;;4961569;28;20275;-63
2024/01/07 10:01:57;;;;;;;13.90;12.93;;;0.20;99.90;;;;;;4932087;28;20206;-64
2024/01/07 10:04:25;;;;;;;13.60;12.80;;;0.30;99.90;;;;;;4962975;28;20619;-64
2024/01/07 10:06:54;;;;;;;13.83;12.93;;;0.20;99.90;;;;;;4938004;28;20623;-62
2024/01/07 10:09:28;;;;;;;13.83;12.93;;;0.10;99.90;;;;;;4954018;28;20547;-62
2024/01/07 10:12:02;;;;;;;14.57;13.60;;;0.20;99.90;;;;;;4967502;28;20214;-65
2024/01/07 10:14:36;;;;;;;13.70;12.80;;;0.20;99.90;;;;;;4971429;28;20709;-63
2024/01/07 10:17:17;;;;;;;14.30;13.30;;;0.30;99.90;;;;;;4961705;28;20201;-62
2024/01/07 10:19:48;;;;;;;13.43;12.67;;;0.30;99.90;;;;;;4937465;28;20193;-62
2024/01/07 10:22:16;;;;;;;14.40;13.40;;;0.30;99.90;;;;;;4973783;28;20205;-61
2024/01/07 10:24:58;;;;;;;14.57;13.67;;;0.30;99.90;;;;;;4961901;28;20213;-61
2024/01/07 10:27:25;;;;;;;14.07;13.17;;;0.20;99.90;;;;;;4957065;28;20292;-61
2024/01/07 10:29:58;;;;;;;13.63;12.83;;;0.40;99.90;;;;;;4959010;28;20304;-62
2024/01/07 10:32:26;;;;;;;13.97;12.93;;;0.40;99.90;;;;;;4936303;28;21035;-61
2024/01/07 10:35:02;;;;;;;15.57;14.47;;;0.60;99.90;;;;;;4969881;28;20225;-64
2024/01/07 10:37:32;;;;;;;15.30;14.10;;;0.60;99.90;;;;;;4947631;28;20227;-61
2024/01/07 10:40:03;;;;;;;14.07;13.17;;;1.10;99.90;;;;;;4972688;28;20579;-61
2024/01/07 10:42:32;;;;;;;14.93;13.73;;;1.80;99.90;;;;;;4971197;28;20385;-59
2024/01/07 10:45:01;;;;;;;14.07;13.07;;;1.50;99.90;;;;;;4952926;28;20202;-62
2024/01/07 10:47:31;;;;;;;13.97;13.07;;;1.10;99.90;;;;;;4933938;28;20214;-61
2024/01/07 10:49:59;;;;;;;14.70;13.60;;;0.60;99.90;;;;;;4963086;28;20204;-61
2024/01/07 10:52:27;;;;;;;14.70;13.60;;;0.20;99.90;;;;;;4978537;28;20418;-62
2024/01/07 10:55:04;;;;;;;14.07;13.17;;;0.20;99.90;;;;;;4954455;28;20191;-62
2024/01/07 10:57:40;;;;;;;13.33;12.53;;;0.20;99.90;;;;;;4962067;28;20651;-62
2024/01/07 11:00:18;;;;;;;14.33;13.43;;;0.00;99.90;;;;;;4955410;28;20198;-62
2024/01/07 11:03:32;;;;;;;14.43;13.53;;;0.00;99.90;;;;;;4947976;28;20198;-61
2024/01/07 11:06:16;;;;;;;14.20;13.40;;;0.00;99.90;;;;;;4953186;28;20222;-62
2024/01/07 11:09:17;;;;;;;14.03;13.23;;;-0.10;99.90;;;;;;4949913;28;20217;-63
2024/01/07 11:11:51;;;;;;;14.03;13.13;;;-0.10;99.90;;;;;;4967362;28;20619;-61
2024/01/07 11:14:52;;;;;;;14.67;13.47;;;0.10;99.90;;;;;;4952666;28;20626;-61
2024/01/07 11:17:32;;;;;;;14.03;13.17;;;0.20;99.90;;;;;;4940044;28;20265;-61
2024/01/07 11:20:06;;;;;;;14.37;13.47;;;0.20;99.90;;;;;;4969606;28;20206;-61
2024/01/07 11:22:33;;;;;;;15.37;14.20;;;0.30;99.90;;;;;;4968749;28;20682;-61
2024/01/07 11:25:00;;;;;;;14.87;13.83;;;0.30;99.90;;;;;;4952911;28;20201;-62
2024/01/07 11:27:31;;;;;;;15.43;14.43;;;0.40;99.90;;;;;;4966186;28;20519;-61
2024/01/07 11:30:19;;;;;;;15.13;14.10;;;0.40;99.90;;;;;;4951859;28;20280;-61
2024/01/07 11:32:48;;;;;;;13.93;13.13;;;0.20;99.90;;;;;;4950895;28;20293;-62
2024/01/07 11:35:42;;;;;;;14.13;13.23;;;0.00;99.90;;;;;;4962961;28;20744;-61
2024/01/07 11:38:09;;;;;;;14.60;13.70;;;0.20;99.90;;;;;;4962996;28;20222;-61
2024/01/07 11:40:36;;;;;;;14.53;13.57;;;0.30;99.90;;;;;;4949251;28;22411;-62
2024/01/07 11:43:04;;;;;;;14.40;13.47;;;0.10;99.90;;;;;;4956882;28;20707;-62
2024/01/07 11:45:35;;;;;;;14.47;13.57;;;0.20;99.90;;;;;;4955115;28;20193;-62
2024/01/07 11:48:10;;;;;;;15.03;13.97;;;0.20;99.90;;;;;;4970788;28;20202;-61
2024/01/07 11:50:40;;;;;;;14.63;13.73;;;0.20;99.90;;;;;;4943376;28;20363;-62
2024/01/07 11:53:11;;;;;;;15.17;14.07;;;1.20;99.90;;;;;;4951348;28;20647;-62
2024/01/07 11:55:39;;;;;;;15.60;14.20;;;0.80;99.90;;;;;;4975673;28;20309;-61
2024/01/07 11:58:11;;;;;;;14.70;13.87;;;0.40;99.90;;;;;;4956704;28;20653;-64
2024/01/07 12:00:41;;;;;;;15.13;14.13;;;0.20;99.90;;;;;;4963968;28;20202;-63
2024/01/07 12:03:12;;;;;;;16.70;15.20;;;0.10;99.90;;;;;;4964205;28;20270;-62
2024/01/07 12:05:41;;;;;;;14.77;13.77;;;0.00;99.90;;;;;;4946673;28;20266;-63
2024/01/07 12:08:10;;;;;;;14.67;13.67;;;0.10;99.90;;;;;;4960501;28;20224;-62
2024/01/07 12:10:37;;;;;;;15.20;13.93;;;0.10;99.90;;;;;;4960957;28;20243;-63
2024/01/07 12:13:05;;;;;;;15.47;14.27;;;0.00;99.90;;;;;;4961734;28;20217;-63
2024/01/07 12:15:32;;;;;;;15.30;14.30;;;0.00;99.90;;;;;;4963430;28;20569;-63
2024/01/07 12:18:01;;;;;;;15.57;14.57;;;0.00;99.90;;;;;;4968107;28;20207;-62
2024/01/07 12:20:29;;;;;;;15.23;14.17;;;0.00;99.90;;;;;;4974119;28;20201;-62
2024/01/07 12:23:08;;;;;;;14.60;13.70;;;0.00;99.90;;;;;;4983536;28;20302;-63
2024/01/07 12:25:35;;;;;;;14.50;13.60;;;0.00;99.90;;;;;;4954996;28;20225;-62
2024/01/07 12:28:06;;;;;;;15.10;14.10;;;-0.10;99.90;;;;;;4971016;28;20202;-60
2024/01/07 12:30:33;;;;;;;15.97;14.70;;;0.10;99.90;;;;;;4960406;28;20267;-61
2024/01/07 12:33:05;;;;;;;15.10;14.00;;;0.10;99.90;;;;;;4963621;28;20683;-62
2024/01/07 12:35:32;;;;;;;15.30;14.17;;;0.40;99.90;;;;;;4957911;28;20214;-62
2024/01/07 12:42:03;;;;;;;16.17;14.73;;;0.70;99.90;;;;;;4950075;28;20195;-62
2024/01/07 12:44:33;;;;;;;15.50;14.53;;;1.10;99.90;;;;;;4960906;28;20836;-62
2024/01/07 12:47:03;;;;;;;15.10;14.13;;;1.10;99.90;;;;;;4957411;28;20690;-62
2024/01/07 12:49:30;;;;;;;15.27;14.27;;;1.20;99.90;;;;;;4959384;28;20195;-61
2024/01/07 12:51:57;;;;;;;15.30;14.40;;;1.00;99.90;;;;;;4976008;28;20281;-62